Africa, Pennsylvania
Current Conditions -  °F | °C
As of 9:53 PM on Thursday 27 Nov 2014 (Local Time) from KHGR Reporting Station
Broken Clouds Broken Clouds  
Wind Chill: -3°   Ceiling: 3500
Heat Index:   Visibility: 10mi
Dew Point: -3°   Wind: 9mph
Humidity: 75%   Direction: 300°WNW
Pressure: 30.14"   Gusts: NA
Location:  39.8035°N, 77.9346°W
Report Text: KHGR 280253Z AUTO 30008KT 10SM BKN035 BKN085 01/M03 A3014 RMK AO2 SLP223 60000 T00111028 51014 TSNO $
Loading
Personal Weather Stations






























Interactive Weather Map New forecast layout! Learn more

10-Day Weather Forecast

Advertisements
Track Severe Weather on mobile